createdAt,value
2022-11-12T00:02:11.671Z,4.47
2022-11-12T00:04:58.390Z,4.18
2022-11-12T00:07:45.879Z,4.25
2022-11-12T00:10:32.974Z,3.90
2022-11-12T00:13:19.340Z,4.40
2022-11-12T00:16:06.425Z,4.28
2022-11-12T00:18:52.868Z,4.10
2022-11-12T00:21:39.139Z,3.80
2022-11-12T00:24:26.746Z,3.85
2022-11-12T00:27:13.198Z,3.65
2022-11-12T00:29:59.645Z,3.78
2022-11-12T00:32:46.090Z,3.75
2022-11-12T00:35:33.404Z,2.72
2022-11-12T00:38:19.607Z,2.75
2022-11-12T00:41:07.651Z,3.88
2022-11-12T00:43:54.170Z,3.15
2022-11-12T00:46:40.357Z,2.65
2022-11-12T00:49:26.764Z,2.85
2022-11-12T00:52:12.943Z,2.70
2022-11-12T00:54:59.238Z,2.95
2022-11-12T00:57:46.993Z,2.33
2022-11-12T01:00:33.374Z,2.92
2022-11-12T01:03:19.761Z,2.30
2022-11-12T01:06:07.605Z,3.25
2022-11-12T01:08:55.985Z,2.50
2022-11-12T01:11:42.792Z,2.42
2022-11-12T01:14:30.643Z,2.53
2022-11-12T01:17:17.197Z,2.17
2022-11-12T01:20:03.521Z,2.47
2022-11-12T01:22:49.905Z,2.45
2022-11-12T01:25:38.897Z,2.67
2022-11-12T01:28:25.470Z,2.42
2022-11-12T01:31:17.447Z,2.85
2022-11-12T01:34:06.044Z,2.33
2022-11-12T01:36:52.506Z,2.67
2022-11-12T01:39:38.897Z,2.10
2022-11-12T01:42:26.637Z,2.83
2022-11-12T01:45:16.610Z,2.65
2022-11-12T01:48:05.012Z,2.38
2022-11-12T01:50:51.976Z,2.22
2022-11-12T01:53:44.599Z,2.85
2022-11-12T01:56:32.118Z,2.15
2022-11-12T01:59:23.549Z,2.35
2022-11-12T02:02:10.150Z,2.50
2022-11-12T02:04:58.960Z,2.22
2022-11-12T02:07:47.773Z,2.40
2022-11-12T02:10:35.917Z,2.58
2022-11-12T02:13:40.518Z,2.30
2022-11-12T02:16:29.959Z,2.50
2022-11-12T02:19:18.051Z,2.38
2022-11-12T02:22:06.079Z,2.10
2022-11-12T02:24:52.282Z,2.45
2022-11-12T02:27:38.783Z,2.38
2022-11-12T02:30:33.543Z,2.13
2022-11-12T02:33:19.770Z,2.40
2022-11-12T02:36:06.319Z,2.20
2022-11-12T02:38:54.349Z,2.00
2022-11-12T02:41:40.957Z,2.13
2022-11-12T02:44:27.449Z,1.95
2022-11-12T02:47:14.037Z,2.20
2022-11-12T02:50:00.343Z,2.47
2022-11-12T02:52:46.854Z,2.65
2022-11-12T02:55:34.614Z,2.28
2022-11-12T02:58:22.557Z,2.20
2022-11-12T03:01:09.289Z,2.40
2022-11-12T03:03:55.456Z,2.20
2022-11-12T03:06:42.560Z,2.08
2022-11-12T03:09:28.934Z,2.00
2022-11-12T03:12:16.585Z,2.58
2022-11-12T03:15:02.952Z,1.95
2022-11-12T03:17:49.247Z,2.20
2022-11-12T03:20:35.873Z,2.38
2022-11-12T03:23:22.390Z,2.33
2022-11-12T03:26:08.775Z,2.42
2022-11-12T03:28:56.896Z,2.17
2022-11-12T03:31:43.285Z,2.40
2022-11-12T03:34:29.722Z,2.67
2022-11-12T03:37:15.904Z,2.17
2022-11-12T03:40:02.179Z,1.98
2022-11-12T03:42:49.112Z,2.13
2022-11-12T03:45:36.900Z,1.95
2022-11-12T03:48:23.780Z,2.00
2022-11-12T03:51:12.228Z,2.33
2022-11-12T03:53:58.601Z,2.30
2022-11-12T03:56:45.000Z,2.35
2022-11-12T03:59:31.776Z,2.03
2022-11-12T04:02:19.394Z,2.28
2022-11-12T04:05:24.473Z,2.10
2022-11-12T04:08:34.758Z,2.17
2022-11-12T04:11:21.372Z,1.73
2022-11-12T04:14:07.862Z,2.00
2022-11-12T04:17:11.807Z,2.35
2022-11-12T04:20:16.937Z,2.38
2022-11-12T04:23:03.431Z,2.20
2022-11-12T04:26:07.528Z,2.15
2022-11-12T04:29:11.323Z,2.38
2022-11-12T04:31:57.652Z,2.38
2022-11-12T04:34:44.181Z,2.40
2022-11-12T04:37:44.473Z,2.60
2022-11-12T04:40:48.805Z,2.42
2022-11-12T04:43:52.010Z,2.38
2022-11-12T04:46:38.587Z,2.85
2022-11-12T04:49:25.008Z,2.38
2022-11-12T04:52:11.449Z,2.45
2022-11-12T04:54:59.735Z,2.35
2022-11-12T04:57:45.995Z,2.28
2022-11-12T05:00:32.295Z,2.60
2022-11-12T05:03:18.895Z,2.50
2022-11-12T05:06:27.962Z,2.50
2022-11-12T05:09:14.527Z,2.30
2022-11-12T05:12:02.354Z,3.13
2022-11-12T05:14:48.947Z,2.63
2022-11-12T05:17:35.345Z,2.63
2022-11-12T05:20:21.805Z,2.80
2022-11-12T05:23:08.113Z,2.67
2022-11-12T05:25:54.831Z,3.05
2022-11-12T05:28:42.558Z,2.38
2022-11-12T05:31:29.382Z,2.42
2022-11-12T05:34:21.571Z,2.70
2022-11-12T05:37:10.659Z,3.20
2022-11-12T05:39:57.179Z,3.03
2022-11-12T05:42:43.490Z,2.80
2022-11-12T05:45:31.153Z,2.28
2022-11-12T05:48:21.608Z,3.15
2022-11-12T05:51:14.098Z,2.70
2022-11-12T05:54:02.266Z,3.20
2022-11-12T05:56:49.176Z,3.00
2022-11-12T05:59:36.357Z,3.00
2022-11-12T06:02:24.365Z,2.83
2022-11-12T06:05:11.171Z,3.05
2022-11-12T06:07:58.002Z,2.80
2022-11-12T06:10:50.195Z,3.28
2022-11-12T06:13:37.368Z,2.90
2022-11-12T06:16:23.839Z,3.30
2022-11-12T06:19:12.022Z,2.80
2022-11-12T06:21:58.285Z,3.08
2022-11-12T06:24:45.048Z,2.75
2022-11-12T06:27:31.191Z,2.78
2022-11-12T06:30:21.638Z,3.13
2022-11-12T06:33:10.752Z,3.63
2022-11-12T06:36:03.931Z,3.75
2022-11-12T06:38:50.583Z,3.25
2022-11-12T06:41:36.749Z,3.40
2022-11-12T06:44:22.976Z,3.40
2022-11-12T06:47:09.888Z,3.20
2022-11-12T06:49:56.422Z,3.58
2022-11-12T06:52:44.126Z,3.38
2022-11-12T06:55:30.391Z,2.90
2022-11-12T06:58:16.601Z,3.10
2022-11-12T07:01:12.365Z,3.03
2022-11-12T07:03:59.041Z,3.90
2022-11-12T07:06:45.389Z,3.65
2022-11-12T07:09:33.356Z,3.72
2022-11-12T07:12:19.775Z,3.63
2022-11-12T07:15:07.338Z,3.53
2022-11-12T07:17:53.574Z,3.53
2022-11-12T07:20:39.819Z,3.53
2022-11-12T07:23:26.238Z,3.92
2022-11-12T07:26:17.931Z,4.00
2022-11-12T07:29:04.511Z,3.53
2022-11-12T07:31:50.632Z,3.42
2022-11-12T07:34:36.825Z,4.00
2022-11-12T07:37:22.976Z,3.80
2022-11-12T07:40:09.960Z,4.00
2022-11-12T07:43:00.080Z,3.78
2022-11-12T07:45:46.776Z,3.83
2022-11-12T07:48:33.489Z,4.03
2022-11-12T07:51:21.742Z,3.53
2022-11-12T07:54:08.397Z,3.58
2022-11-12T07:56:54.647Z,3.80
2022-11-12T07:59:46.162Z,4.28
2022-11-12T08:02:32.891Z,4.38
2022-11-12T08:05:21.486Z,3.78
2022-11-12T08:08:08.108Z,3.53
2022-11-12T08:10:56.573Z,4.13
2022-11-12T08:13:43.203Z,3.75
2022-11-12T08:16:31.007Z,3.83
2022-11-12T08:19:17.532Z,3.80
2022-11-12T08:22:03.846Z,4.07
2022-11-12T08:24:50.125Z,4.60
2022-11-12T08:27:36.767Z,4.85
2022-11-12T08:30:23.378Z,4.47
2022-11-12T08:33:11.204Z,4.63
2022-11-12T08:35:57.713Z,4.82
2022-11-12T08:38:44.469Z,4.38
2022-11-12T08:41:30.764Z,4.25
2022-11-12T08:44:17.039Z,4.35
2022-11-12T08:47:03.328Z,4.90
2022-11-12T08:49:50.947Z,4.45
2022-11-12T08:52:37.155Z,4.82
2022-11-12T08:55:23.438Z,4.68
2022-11-12T08:58:10.932Z,4.90
2022-11-12T09:00:58.677Z,4.82
2022-11-12T09:03:45.252Z,4.78
2022-11-12T09:06:32.993Z,4.97
2022-11-12T09:09:19.590Z,5.72
2022-11-12T09:12:13.689Z,5.55
2022-11-12T09:15:35.836Z,5.82
2022-11-12T09:18:13.530Z,5.63
2022-11-12T09:21:04.521Z,6.82
2022-11-12T09:23:52.037Z,6.30
2022-11-12T09:26:38.279Z,7.15
2022-11-12T09:29:24.786Z,7.07
2022-11-12T09:32:11.185Z,8.90
2022-11-12T09:34:57.839Z,6.70
2022-11-12T09:37:44.579Z,7.78
2022-11-12T09:40:45.115Z,8.00
2022-11-12T09:43:35.164Z,8.77
2022-11-12T09:46:29.744Z,8.40
2022-11-12T09:49:20.298Z,8.77
2022-11-12T09:52:15.554Z,8.88
2022-11-12T09:55:14.469Z,7.40
2022-11-12T09:58:02.517Z,8.57
2022-11-12T10:00:55.908Z,7.85
2022-11-12T10:03:54.008Z,8.57
2022-11-12T10:06:50.324Z,8.20
2022-11-12T10:09:48.141Z,8.73
2022-11-12T10:12:50.035Z,8.18
2022-11-12T10:16:09.197Z,7.00
2022-11-12T10:19:21.444Z,6.80
2022-11-12T10:22:21.173Z,7.47
2022-11-12T10:25:15.951Z,8.00
2022-11-12T10:28:09.726Z,7.35
2022-11-12T10:31:03.382Z,7.45
2022-11-12T10:36:39.576Z,7.35
2022-11-12T10:39:37.163Z,7.32
2022-11-12T10:42:24.654Z,6.35
2022-11-12T10:45:21.851Z,6.63
2022-11-12T10:48:26.939Z,6.35
2022-11-12T10:51:26.861Z,6.65
2022-11-12T10:54:23.241Z,6.38
2022-11-12T10:57:21.948Z,6.32
2022-11-12T11:00:20.562Z,6.55
2022-11-12T11:03:16.698Z,6.57
2022-11-12T11:06:06.519Z,5.57
2022-11-12T11:08:55.026Z,6.32
2022-11-12T11:11:50.507Z,6.55
2022-11-12T11:14:38.324Z,6.40
2022-11-12T11:17:24.687Z,6.03
2022-11-12T11:20:19.927Z,5.90
2022-11-12T11:23:17.981Z,6.20
2022-11-12T11:26:17.690Z,7.28
2022-11-12T11:29:21.020Z,6.93
2022-11-12T11:32:18.750Z,6.88
2022-11-12T11:35:19.245Z,6.40
2022-11-12T11:38:32.803Z,6.57
2022-11-12T11:41:41.804Z,6.50
2022-11-12T11:44:38.662Z,6.50
2022-11-12T11:47:59.403Z,6.32
2022-11-12T11:50:53.455Z,5.88
2022-11-12T11:53:53.023Z,6.07
2022-11-12T11:56:43.616Z,7.00
2022-11-12T11:59:42.794Z,6.72
2022-11-12T12:02:50.460Z,6.72
2022-11-12T12:05:44.148Z,5.95
2022-11-12T12:11:31.480Z,6.63
2022-11-12T12:14:31.562Z,7.32
2022-11-12T12:17:32.374Z,7.03
2022-11-12T12:20:23.455Z,6.80
2022-11-12T12:23:20.822Z,7.00
2022-11-12T12:26:14.195Z,6.10
2022-11-12T12:31:59.603Z,7.13
2022-11-12T12:34:48.899Z,6.85
2022-11-12T12:37:42.138Z,6.88
2022-11-12T12:40:35.551Z,7.60
2022-11-12T12:43:28.869Z,5.03
2022-11-12T12:46:21.555Z,7.57
2022-11-12T12:49:12.133Z,8.23
2022-11-12T12:51:59.712Z,7.38
2022-11-12T12:54:57.139Z,8.23
2022-11-12T12:57:43.928Z,7.78
2022-11-12T13:00:35.790Z,7.68
2022-11-12T13:03:59.551Z,8.02
2022-11-12T13:06:54.853Z,8.20
2022-11-12T13:09:41.577Z,7.95
2022-11-12T13:13:00.873Z,7.38
2022-11-12T13:15:48.750Z,7.10
2022-11-12T13:19:04.042Z,8.15
2022-11-12T13:22:28.717Z,7.63
2022-11-12T13:25:27.883Z,6.72
2022-11-12T13:28:15.297Z,5.93
2022-11-12T13:31:04.285Z,6.45
2022-11-12T13:33:50.786Z,6.30
2022-11-12T13:36:38.918Z,6.25
2022-11-12T13:39:26.279Z,6.13
2022-11-12T13:42:33.115Z,6.15
2022-11-12T13:45:21.612Z,6.60
2022-11-12T13:48:09.747Z,6.13
2022-11-12T13:50:59.849Z,6.22
2022-11-12T13:53:48.574Z,5.35
2022-11-12T13:56:37.417Z,5.82
2022-11-12T13:59:25.600Z,6.63
2022-11-12T14:02:22.151Z,5.70
2022-11-12T14:05:15.697Z,6.18
2022-11-12T14:08:14.911Z,6.00
2022-11-12T14:11:18.235Z,5.82
2022-11-12T14:14:13.225Z,5.57
2022-11-12T14:17:12.635Z,5.80
2022-11-12T14:20:20.844Z,5.40
2022-11-12T14:23:13.628Z,4.93
2022-11-12T14:26:00.287Z,5.63
2022-11-12T14:28:56.769Z,5.80
2022-11-12T14:31:43.427Z,5.18
2022-11-12T14:34:31.560Z,4.70
2022-11-12T14:37:38.463Z,4.60
2022-11-12T14:40:31.573Z,5.45
2022-11-12T14:43:30.587Z,5.03
2022-11-12T14:46:25.622Z,5.00
2022-11-12T14:49:19.251Z,5.05
2022-11-12T14:52:10.761Z,5.53
2022-11-12T14:54:59.868Z,5.90
2022-11-12T14:57:46.459Z,5.20
2022-11-12T15:00:42.347Z,5.35
2022-11-12T15:03:34.191Z,4.82
2022-11-12T15:06:29.099Z,5.50
2022-11-12T15:09:21.667Z,5.30
2022-11-12T15:12:12.631Z,6.85
2022-11-12T15:15:10.305Z,5.38
2022-11-12T15:18:01.695Z,5.35
2022-11-12T15:21:07.837Z,5.78
2022-11-12T15:24:01.391Z,5.40
2022-11-12T15:26:50.555Z,6.05
2022-11-12T15:29:37.181Z,6.38
2022-11-12T15:32:34.632Z,7.07
2022-11-12T15:35:34.855Z,6.55
2022-11-12T15:38:26.938Z,7.70
2022-11-12T15:41:24.939Z,6.45
2022-11-12T15:44:12.178Z,7.85
2022-11-12T15:46:59.854Z,8.32
2022-11-12T15:49:51.006Z,8.32
2022-11-12T15:52:37.356Z,7.68
2022-11-12T15:55:25.733Z,9.23
2022-11-12T15:58:17.300Z,8.57
2022-11-12T16:01:05.076Z,8.55
2022-11-12T16:03:51.459Z,8.35
2022-11-12T16:06:37.856Z,9.05
2022-11-12T16:09:24.133Z,9.35
2022-11-12T16:12:12.916Z,10.23
2022-11-12T16:15:00.197Z,10.40
2022-11-12T16:17:47.298Z,8.88
2022-11-12T16:20:35.501Z,9.52
2022-11-12T16:23:21.919Z,10.02
2022-11-12T16:26:10.121Z,11.55
2022-11-12T16:28:58.449Z,10.75
2022-11-12T16:31:45.301Z,9.98
2022-11-12T16:34:31.840Z,10.68
2022-11-12T16:37:18.145Z,10.65
2022-11-12T16:40:04.431Z,10.32
2022-11-12T16:42:51.039Z,11.23
2022-11-12T16:45:41.283Z,11.00
2022-11-12T16:48:27.803Z,11.60
2022-11-12T16:51:18.848Z,9.70
2022-11-12T16:54:05.553Z,11.15
2022-11-12T16:56:52.174Z,10.45
2022-11-12T16:59:38.619Z,11.48
2022-11-12T17:02:26.362Z,11.52
2022-11-12T17:05:16.800Z,11.68
2022-11-12T17:08:03.396Z,12.18
2022-11-12T17:10:49.841Z,11.02
2022-11-12T17:13:37.343Z,11.18
2022-11-12T17:16:23.909Z,10.88
2022-11-12T17:19:12.180Z,10.57
2022-11-12T17:21:58.566Z,10.95
2022-11-12T17:24:44.777Z,12.30
2022-11-12T17:27:31.019Z,12.10
2022-11-12T17:30:17.729Z,11.90
2022-11-12T17:33:03.987Z,12.13
2022-11-12T17:35:51.817Z,12.93
2022-11-12T17:38:38.241Z,12.23
2022-11-12T17:41:24.823Z,13.02
2022-11-12T17:44:15.956Z,12.23
2022-11-12T17:47:03.030Z,14.80
2022-11-12T17:49:49.297Z,13.60
2022-11-12T17:52:36.883Z,16.35
2022-11-12T17:55:23.244Z,14.80
2022-11-12T17:58:09.872Z,15.02
2022-11-12T18:00:56.853Z,16.20
2022-11-12T18:03:44.951Z,16.08
2022-11-12T18:06:32.932Z,16.50
2022-11-12T18:09:20.534Z,15.73
2022-11-12T18:12:07.104Z,16.55
2022-11-12T18:14:53.619Z,16.10
2022-11-12T18:17:40.126Z,16.08
2022-11-12T18:20:26.608Z,15.05
2022-11-12T18:23:14.262Z,16.05
2022-11-12T18:26:03.046Z,15.13
2022-11-12T18:28:52.723Z,15.40
2022-11-12T18:31:40.444Z,15.20
2022-11-12T18:34:26.855Z,16.40
2022-11-12T18:37:13.462Z,16.55
2022-11-12T18:39:59.698Z,16.48
2022-11-12T18:42:47.581Z,15.93
2022-11-12T18:45:34.171Z,16.92
2022-11-12T18:48:20.453Z,15.90
2022-11-12T18:51:08.951Z,15.75
2022-11-12T18:53:55.421Z,17.20
2022-11-12T18:56:42.628Z,16.40
2022-11-12T18:59:32.500Z,16.70
2022-11-12T19:02:19.279Z,16.63
2022-11-12T19:05:06.081Z,16.30
2022-11-12T19:07:52.597Z,16.38
2022-11-12T19:10:39.688Z,16.90
2022-11-12T19:13:26.742Z,15.82
2022-11-12T19:16:17.227Z,16.75
2022-11-12T19:19:06.739Z,16.90
2022-11-12T19:21:53.469Z,16.25
2022-11-12T19:24:39.711Z,15.63
2022-11-12T19:27:25.852Z,16.73
2022-11-12T19:30:13.095Z,16.38
2022-11-12T19:33:00.798Z,16.45
2022-11-12T19:35:47.103Z,18.80
2022-11-12T19:38:33.902Z,17.52
2022-11-12T19:41:20.413Z,17.13
2022-11-12T19:44:06.810Z,18.40
2022-11-12T19:46:53.093Z,16.85
2022-11-12T19:49:40.644Z,18.42
2022-11-12T19:52:26.837Z,18.08
2022-11-12T19:55:13.565Z,17.77
2022-11-12T19:58:01.113Z,17.45
2022-11-12T20:00:47.390Z,17.75
2022-11-12T20:03:34.653Z,18.20
2022-11-12T20:06:25.488Z,17.92
2022-11-12T20:09:12.061Z,18.08
2022-11-12T20:11:58.349Z,18.25
2022-11-12T20:14:44.647Z,17.20
2022-11-12T20:17:33.032Z,17.70
2022-11-12T20:20:19.302Z,17.05
2022-11-12T20:23:07.153Z,17.92
2022-11-12T20:25:54.179Z,19.65
2022-11-12T20:28:42.230Z,18.48
2022-11-12T20:31:28.518Z,18.23
2022-11-12T20:34:14.973Z,18.20
2022-11-12T20:37:01.419Z,19.00
2022-11-12T20:39:49.309Z,18.00
2022-11-12T20:42:35.716Z,19.70
2022-11-12T20:45:21.826Z,18.85
2022-11-12T20:48:08.137Z,17.70
2022-11-12T20:51:22.587Z,18.02
2022-11-12T20:54:10.114Z,17.30
2022-11-12T20:56:59.748Z,17.33
2022-11-12T20:59:46.496Z,17.52
2022-11-12T21:02:33.925Z,19.70
2022-11-12T21:05:20.198Z,17.80
2022-11-12T21:08:06.750Z,17.20
2022-11-12T21:10:53.486Z,17.67
2022-11-12T21:13:42.145Z,19.15
2022-11-12T21:16:28.561Z,17.80
2022-11-12T21:19:14.826Z,17.60
2022-11-12T21:22:01.047Z,18.52
2022-11-12T21:24:47.373Z,18.23
2022-11-12T21:27:33.728Z,18.08
2022-11-12T21:30:21.613Z,17.52
2022-11-12T21:33:08.258Z,17.92
2022-11-12T21:35:54.644Z,17.67
2022-11-12T21:38:41.470Z,18.35
2022-11-12T21:41:28.979Z,17.95
2022-11-12T21:44:15.548Z,17.90
2022-11-12T21:47:03.199Z,17.58
2022-11-12T21:49:49.458Z,16.38
2022-11-12T21:52:35.874Z,17.30
2022-11-12T21:55:22.128Z,18.30
2022-11-12T21:58:08.724Z,17.90
2022-11-12T22:00:54.964Z,17.23
2022-11-12T22:03:42.650Z,16.65
2022-11-12T22:06:30.665Z,18.63
2022-11-12T22:09:17.120Z,18.50
2022-11-12T22:12:03.374Z,17.85
2022-11-12T22:14:49.594Z,16.52
2022-11-12T22:17:35.903Z,18.20
2022-11-12T22:20:23.518Z,17.13
2022-11-12T22:23:09.992Z,17.90
2022-11-12T22:25:58.002Z,18.20
2022-11-12T22:28:44.802Z,18.30
2022-11-12T22:31:32.856Z,18.48
2022-11-12T22:34:19.024Z,18.02
2022-11-12T22:37:06.660Z,18.17
2022-11-12T22:39:53.154Z,17.30
2022-11-12T22:42:39.556Z,18.92
2022-11-12T22:45:25.851Z,17.77
2022-11-12T22:48:12.143Z,17.95
2022-11-12T22:51:00.203Z,18.35
2022-11-12T22:53:48.403Z,18.73
2022-11-12T22:56:34.842Z,18.58
2022-11-12T22:59:21.422Z,17.98
2022-11-12T23:02:07.973Z,18.80
2022-11-12T23:04:54.521Z,18.38
2022-11-12T23:07:40.819Z,17.05
2022-11-12T23:10:28.675Z,18.50
2022-11-12T23:13:15.016Z,18.98
2022-11-12T23:16:01.438Z,17.92
2022-11-12T23:18:48.087Z,19.98
2022-11-12T23:21:34.296Z,19.02
2022-11-12T23:24:20.689Z,19.35
2022-11-12T23:27:08.475Z,19.33
2022-11-12T23:29:54.887Z,18.35
2022-11-12T23:32:41.200Z,18.88
2022-11-12T23:35:27.595Z,17.27
2022-11-12T23:38:13.930Z,18.25
2022-11-12T23:41:00.562Z,18.23
2022-11-12T23:43:48.327Z,18.65
2022-11-12T23:46:34.535Z,19.77
2022-11-12T23:49:20.891Z,18.98
2022-11-12T23:52:07.261Z,18.40
2022-11-12T23:54:53.486Z,19.35
2022-11-12T23:57:39.782Z,18.25
